createdAt,value
2023-04-14T00:00:56.906Z,935.00
2023-04-14T00:01:56.936Z,901.00
2023-04-14T00:02:57.099Z,931.00
2023-04-14T00:03:57.156Z,1002.00
2023-04-14T00:04:57.075Z,1042.00
2023-04-14T00:05:57.034Z,1015.00
2023-04-14T00:06:57.104Z,974.00
2023-04-14T00:07:57.094Z,951.00
2023-04-14T00:08:57.152Z,944.00
2023-04-14T00:09:57.169Z,935.00
2023-04-14T00:10:57.208Z,936.00
2023-04-14T00:11:57.249Z,963.00
2023-04-14T00:12:57.262Z,926.00
2023-04-14T00:13:57.316Z,888.00
2023-04-14T00:14:57.371Z,853.00
2023-04-14T00:15:57.375Z,888.00
2023-04-14T00:16:57.450Z,947.00
2023-04-14T00:17:57.488Z,896.00
2023-04-14T00:18:57.481Z,885.00
2023-04-14T00:19:57.534Z,893.00
2023-04-14T00:20:57.544Z,784.00
2023-04-14T00:21:57.588Z,791.00
2023-04-14T00:22:57.586Z,821.00
2023-04-14T00:23:57.661Z,866.00
2023-04-14T00:24:57.699Z,873.00
2023-04-14T00:25:57.735Z,940.00
2023-04-14T00:26:57.778Z,892.00
2023-04-14T00:27:57.788Z,892.00
2023-04-14T00:28:57.867Z,961.00
2023-04-14T00:29:57.862Z,901.00
2023-04-14T00:30:57.930Z,856.00
2023-04-14T00:31:57.915Z,771.00
2023-04-14T00:32:58.018Z,732.00
2023-04-14T00:33:58.018Z,729.00
2023-04-14T00:34:58.078Z,670.00
2023-04-14T00:35:58.079Z,652.00
2023-04-14T00:36:58.143Z,635.00
2023-04-14T00:37:58.185Z,624.00
2023-04-14T00:38:58.273Z,614.00
2023-04-14T00:39:58.228Z,615.00
2023-04-14T00:40:58.230Z,613.00
2023-04-14T00:41:58.279Z,606.00
2023-04-14T00:42:58.311Z,613.00
2023-04-14T00:43:58.346Z,603.00
2023-04-14T00:44:58.383Z,596.00
2023-04-14T00:45:58.417Z,608.00
2023-04-14T00:46:58.408Z,630.00
2023-04-14T00:47:58.508Z,643.00
2023-04-14T00:48:58.592Z,625.00
2023-04-14T00:49:58.480Z,626.00
2023-04-14T00:50:58.565Z,611.00
2023-04-14T00:51:58.591Z,612.00
2023-04-14T00:52:58.637Z,621.00
2023-04-14T00:53:58.651Z,604.00
2023-04-14T00:54:58.710Z,596.00
2023-04-14T00:55:58.743Z,593.00
2023-04-14T00:56:58.751Z,592.00
2023-04-14T00:57:58.791Z,598.00
2023-04-14T00:58:59.106Z,619.00
2023-04-14T00:59:58.863Z,635.00
2023-04-14T01:00:58.902Z,645.00
2023-04-14T01:01:59.071Z,694.00
2023-04-14T01:02:59.058Z,666.00
2023-04-14T01:03:59.135Z,651.00
2023-04-14T01:04:59.215Z,653.00
2023-04-14T01:05:59.118Z,658.00
2023-04-14T01:06:59.146Z,655.00
2023-04-14T01:07:59.191Z,661.00
2023-04-14T01:08:59.461Z,646.00
2023-04-14T01:09:59.234Z,626.00
2023-04-14T01:10:59.282Z,608.00
2023-04-14T01:11:59.303Z,614.00
2023-04-14T01:12:59.323Z,628.00
2023-04-14T01:13:59.341Z,646.00
2023-04-14T01:14:59.380Z,644.00
2023-04-14T01:15:59.488Z,659.00
2023-04-14T01:16:59.455Z,632.00
2023-04-14T01:17:59.563Z,651.00
2023-04-14T01:18:59.778Z,658.00
2023-04-14T01:19:59.587Z,663.00
2023-04-14T01:20:59.616Z,670.00
2023-04-14T01:21:59.645Z,656.00
2023-04-14T01:22:59.686Z,654.00
2023-04-14T01:23:59.715Z,649.00
2023-04-14T01:24:59.750Z,694.00
2023-04-14T01:25:59.772Z,651.00
2023-04-14T01:26:59.802Z,643.00
2023-04-14T01:27:59.835Z,638.00
2023-04-14T01:29:00.138Z,638.00
2023-04-14T01:29:59.898Z,642.00
2023-04-14T01:30:59.937Z,645.00
2023-04-14T01:31:59.987Z,638.00
2023-04-14T01:32:59.998Z,656.00
2023-04-14T01:34:00.033Z,647.00
2023-04-14T01:35:00.081Z,656.00
2023-04-14T01:36:00.104Z,654.00
2023-04-14T01:37:00.139Z,652.00
2023-04-14T01:38:00.132Z,656.00
2023-04-14T01:39:00.343Z,660.00
2023-04-14T01:40:00.207Z,669.00
2023-04-14T01:41:00.231Z,717.00
2023-04-14T01:42:00.282Z,712.00
2023-04-14T01:43:00.334Z,741.00
2023-04-14T01:44:00.337Z,802.00
2023-04-14T01:45:00.370Z,918.00
2023-04-14T01:46:00.440Z,993.00
2023-04-14T01:47:00.415Z,918.00
2023-04-14T01:48:00.466Z,808.00
2023-04-14T01:49:00.750Z,717.00
2023-04-14T01:50:00.501Z,671.00
2023-04-14T01:51:00.521Z,665.00
2023-04-14T01:52:00.541Z,647.00
2023-04-14T01:53:00.584Z,645.00
2023-04-14T01:54:00.608Z,649.00
2023-04-14T01:55:00.640Z,641.00
2023-04-14T01:56:00.694Z,659.00
2023-04-14T01:57:00.731Z,723.00
2023-04-14T01:58:00.750Z,743.00
2023-04-14T01:59:00.908Z,724.00
2023-04-14T02:00:00.812Z,755.00
2023-04-14T02:01:00.849Z,708.00
2023-04-14T02:02:00.905Z,698.00
2023-04-14T02:03:00.937Z,747.00
2023-04-14T02:04:00.931Z,771.00
2023-04-14T02:05:00.922Z,863.00
2023-04-14T02:06:01.126Z,836.00
2023-04-14T02:07:00.991Z,891.00
2023-04-14T02:08:01.080Z,951.00
2023-04-14T02:09:01.320Z,904.00
2023-04-14T02:10:01.113Z,869.00
2023-04-14T02:11:01.136Z,813.00
2023-04-14T02:12:01.173Z,760.00
2023-04-14T02:13:01.181Z,709.00
2023-04-14T02:14:01.195Z,775.00
2023-04-14T02:15:01.269Z,803.00
2023-04-14T02:16:01.278Z,781.00
2023-04-14T02:17:01.335Z,762.00
2023-04-14T02:18:01.378Z,764.00
2023-04-14T02:19:01.603Z,741.00
2023-04-14T02:20:01.415Z,757.00
2023-04-14T02:21:01.431Z,718.00
2023-04-14T02:22:01.470Z,718.00
2023-04-14T02:23:01.496Z,665.00
2023-04-14T02:24:01.554Z,655.00
2023-04-14T02:25:01.630Z,638.00
2023-04-14T02:26:01.592Z,636.00
2023-04-14T02:27:01.615Z,651.00
2023-04-14T02:28:01.638Z,643.00
2023-04-14T02:29:01.915Z,649.00
2023-04-14T02:30:01.824Z,657.00
2023-04-14T02:31:01.834Z,651.00
2023-04-14T02:32:01.817Z,658.00
2023-04-14T02:33:01.902Z,660.00
2023-04-14T02:34:01.909Z,701.00
2023-04-14T02:35:01.919Z,664.00
2023-04-14T02:36:01.991Z,666.00
2023-04-14T02:37:01.985Z,669.00
2023-04-14T02:38:02.030Z,677.00
2023-04-14T02:39:02.215Z,664.00
2023-04-14T02:40:02.182Z,678.00
2023-04-14T02:41:02.235Z,700.00
2023-04-14T02:42:02.204Z,711.00
2023-04-14T02:43:02.222Z,711.00
2023-04-14T02:44:02.246Z,706.00
2023-04-14T02:45:02.259Z,722.00
2023-04-14T02:46:02.384Z,702.00
2023-04-14T02:47:02.356Z,694.00
2023-04-14T02:48:02.429Z,674.00
2023-04-14T02:49:02.600Z,686.00
2023-04-14T02:50:02.518Z,728.00
2023-04-14T02:51:02.527Z,782.00
2023-04-14T02:52:02.576Z,773.00
2023-04-14T02:53:02.627Z,818.00
2023-04-14T02:54:02.667Z,798.00
2023-04-14T02:55:02.666Z,791.00
2023-04-14T02:56:02.717Z,813.00
2023-04-14T02:57:02.739Z,831.00
2023-04-14T02:58:02.763Z,830.00
2023-04-14T02:59:02.980Z,825.00
2023-04-14T03:00:02.811Z,799.00
2023-04-14T03:01:02.851Z,778.00
2023-04-14T03:02:03.045Z,802.00
2023-04-14T03:03:02.997Z,788.00
2023-04-14T03:04:02.987Z,835.00
2023-04-14T03:05:02.952Z,918.00
2023-04-14T03:06:02.976Z,880.00
2023-04-14T03:07:03.036Z,826.00
2023-04-14T03:08:03.049Z,765.00
2023-04-14T03:09:03.193Z,803.00
2023-04-14T03:10:03.141Z,780.00
2023-04-14T03:11:03.170Z,731.00
2023-04-14T03:12:03.203Z,764.00
2023-04-14T03:13:03.222Z,839.00
2023-04-14T03:14:03.276Z,903.00
2023-04-14T03:15:03.306Z,922.00
2023-04-14T03:16:03.455Z,867.00
2023-04-14T03:17:03.399Z,825.00
2023-04-14T03:18:03.481Z,843.00
2023-04-14T03:19:03.518Z,870.00
2023-04-14T03:20:03.475Z,889.00
2023-04-14T03:21:03.506Z,937.00
2023-04-14T03:22:03.551Z,893.00
2023-04-14T03:23:03.554Z,891.00
2023-04-14T03:24:03.585Z,837.00
2023-04-14T03:25:03.622Z,839.00
2023-04-14T03:26:03.670Z,855.00
2023-04-14T03:27:03.684Z,868.00
2023-04-14T03:28:03.714Z,865.00
2023-04-14T03:29:03.768Z,849.00
2023-04-14T03:30:03.768Z,818.00
2023-04-14T03:31:03.857Z,756.00
2023-04-14T03:32:03.851Z,681.00
2023-04-14T03:33:03.935Z,671.00
2023-04-14T03:34:03.915Z,700.00
2023-04-14T03:35:03.944Z,701.00
2023-04-14T03:36:04.011Z,706.00
2023-04-14T03:37:04.029Z,779.00
2023-04-14T03:38:04.031Z,790.00
2023-04-14T03:39:04.072Z,727.00
2023-04-14T03:40:04.094Z,678.00
2023-04-14T03:41:04.158Z,653.00
2023-04-14T03:42:04.161Z,644.00
2023-04-14T03:43:04.206Z,627.00
2023-04-14T03:44:04.209Z,624.00
2023-04-14T03:45:04.239Z,621.00
2023-04-14T03:46:04.266Z,644.00
2023-04-14T03:47:04.384Z,667.00
2023-04-14T03:48:04.393Z,674.00
2023-04-14T03:49:04.386Z,669.00
2023-04-14T03:50:04.461Z,689.00
2023-04-14T03:51:04.464Z,658.00
2023-04-14T03:52:04.487Z,642.00
2023-04-14T03:53:04.508Z,644.00
2023-04-14T03:54:04.517Z,663.00
2023-04-14T03:55:04.547Z,657.00
2023-04-14T03:56:04.585Z,643.00
2023-04-14T03:57:04.643Z,648.00
2023-04-14T03:58:04.683Z,652.00
2023-04-14T03:59:04.722Z,651.00
2023-04-14T04:00:04.756Z,650.00
2023-04-14T04:01:04.788Z,648.00
2023-04-14T04:02:04.923Z,661.00
2023-04-14T04:03:05.047Z,661.00
2023-04-14T04:04:04.953Z,682.00
2023-04-14T04:05:05.020Z,723.00
2023-04-14T04:06:04.940Z,787.00
2023-04-14T04:07:04.977Z,750.00
2023-04-14T04:08:05.015Z,705.00
2023-04-14T04:09:05.052Z,758.00
2023-04-14T04:10:05.110Z,786.00
2023-04-14T04:11:05.093Z,753.00
2023-04-14T04:12:05.123Z,772.00
2023-04-14T04:13:05.150Z,792.00
2023-04-14T04:14:05.180Z,799.00
2023-04-14T04:15:05.232Z,878.00
2023-04-14T04:16:05.352Z,898.00
2023-04-14T04:17:05.310Z,898.00
2023-04-14T04:18:05.328Z,894.00
2023-04-14T04:19:05.367Z,880.00
2023-04-14T04:20:07.304Z,816.00
2023-04-14T04:21:05.442Z,866.00
2023-04-14T04:22:05.460Z,911.00
2023-04-14T04:23:05.499Z,943.00
2023-04-14T04:24:05.533Z,970.00
2023-04-14T04:25:05.562Z,942.00
2023-04-14T04:26:05.634Z,890.00
2023-04-14T04:27:08.153Z,885.00
2023-04-14T04:28:06.657Z,887.00
2023-04-14T04:29:05.647Z,895.00
2023-04-14T04:30:05.648Z,900.00
2023-04-14T04:31:05.638Z,919.00
2023-04-14T04:32:05.622Z,935.00
2023-04-14T04:33:05.672Z,963.00
2023-04-14T04:34:05.607Z,913.00
2023-04-14T04:35:05.625Z,886.00
2023-04-14T04:36:05.655Z,862.00
2023-04-14T04:37:05.565Z,857.00
2023-04-14T04:38:05.577Z,894.00
2023-04-14T04:39:05.559Z,907.00
2023-04-14T04:40:05.591Z,966.00
2023-04-14T04:41:05.600Z,1067.00
2023-04-14T04:42:05.582Z,983.00
2023-04-14T04:43:05.623Z,935.00
2023-04-14T04:44:05.653Z,892.00
2023-04-14T04:45:05.703Z,833.00
2023-04-14T04:46:05.793Z,860.00
2023-04-14T04:47:05.767Z,917.00
2023-04-14T04:48:05.827Z,896.00
2023-04-14T04:49:05.834Z,877.00
2023-04-14T04:50:05.852Z,854.00
2023-04-14T04:51:05.915Z,881.00
2023-04-14T04:52:05.942Z,811.00
2023-04-14T04:53:05.965Z,856.00
2023-04-14T04:54:06.021Z,819.00
2023-04-14T04:55:06.065Z,836.00
2023-04-14T04:56:06.078Z,826.00
2023-04-14T04:57:06.117Z,855.00
2023-04-14T04:58:06.153Z,894.00
2023-04-14T04:59:06.209Z,928.00
2023-04-14T05:00:06.208Z,913.00
2023-04-14T05:01:06.325Z,954.00
2023-04-14T05:02:06.384Z,938.00
2023-04-14T05:03:06.487Z,970.00
2023-04-14T05:04:06.419Z,1002.00
2023-04-14T05:05:06.393Z,1012.00
2023-04-14T05:06:06.412Z,1011.00
2023-04-14T05:07:06.439Z,1000.00
2023-04-14T05:08:06.452Z,997.00
2023-04-14T05:09:06.485Z,970.00
2023-04-14T05:10:06.547Z,991.00
2023-04-14T05:11:06.577Z,989.00
2023-04-14T05:12:06.591Z,1034.00
2023-04-14T05:13:06.619Z,1152.00
2023-04-14T05:14:06.674Z,1164.00
2023-04-14T05:15:06.690Z,1170.00
2023-04-14T05:16:06.734Z,1192.00
2023-04-14T05:17:06.768Z,1237.00
2023-04-14T05:18:06.848Z,1218.00
2023-04-14T05:19:06.787Z,1235.00
2023-04-14T05:20:06.816Z,1267.00
2023-04-14T05:21:06.863Z,1296.00
2023-04-14T05:22:06.937Z,1250.00
2023-04-14T05:23:06.921Z,1260.00
2023-04-14T05:24:06.936Z,1253.00
2023-04-14T05:25:06.969Z,1211.00
2023-04-14T05:26:31.126Z,1189.00
2023-04-14T05:28:06.979Z,1202.00
2023-04-14T05:29:06.966Z,1281.00
2023-04-14T05:30:07.722Z,1446.00
2023-04-14T05:31:06.977Z,1774.00
2023-04-14T05:32:06.929Z,2277.00
2023-04-14T05:33:06.990Z,2553.00
2023-04-14T05:34:06.983Z,2876.00
2023-04-14T05:35:06.985Z,3040.00
2023-04-14T05:36:07.006Z,3184.00
2023-04-14T05:37:07.044Z,3489.00
2023-04-14T05:38:07.112Z,3667.00
2023-04-14T05:39:07.074Z,3873.00
2023-04-14T05:40:07.097Z,3884.00
2023-04-14T05:41:07.156Z,3978.00
2023-04-14T05:42:07.179Z,3976.00
2023-04-14T05:43:07.716Z,4081.00
2023-04-14T05:44:07.710Z,4135.00
2023-04-14T05:45:08.225Z,4229.00
2023-04-14T05:46:07.378Z,4264.00
2023-04-14T05:47:07.370Z,4272.00
2023-04-14T05:48:07.474Z,4189.00
2023-04-14T05:49:07.424Z,4159.00
2023-04-14T05:50:07.488Z,4033.00
2023-04-14T05:51:07.486Z,3888.00
2023-04-14T05:52:07.531Z,3554.00
2023-04-14T05:53:07.545Z,3611.00
2023-04-14T05:54:07.574Z,3462.00
2023-04-14T05:55:07.588Z,3261.00
2023-04-14T05:56:07.605Z,3256.00
2023-04-14T05:57:07.638Z,3107.00
2023-04-14T05:58:07.646Z,2966.00
2023-04-14T05:59:07.693Z,3053.00
2023-04-14T06:00:07.768Z,2991.00
2023-04-14T06:01:07.750Z,2895.00
2023-04-14T06:02:08.031Z,2844.00
2023-04-14T06:03:08.076Z,2990.00
2023-04-14T06:04:08.370Z,2923.00
2023-04-14T06:05:07.991Z,2877.00
2023-04-14T06:06:07.911Z,2764.00
2023-04-14T06:07:07.957Z,2802.00
2023-04-14T06:08:07.990Z,2812.00
2023-04-14T06:09:08.049Z,2814.00
2023-04-14T06:10:08.066Z,2877.00
2023-04-14T06:11:08.096Z,2868.00
2023-04-14T06:12:08.115Z,2943.00
2023-04-14T06:13:08.160Z,2923.00
2023-04-14T06:14:08.182Z,3050.00
2023-04-14T06:15:08.211Z,3223.00
2023-04-14T06:16:08.285Z,3277.00
2023-04-14T06:17:08.277Z,3284.00
2023-04-14T06:18:08.294Z,3294.00
2023-04-14T06:19:08.748Z,3285.00
2023-04-14T06:20:08.320Z,3284.00
2023-04-14T06:21:08.336Z,3336.00
2023-04-14T06:22:08.351Z,3361.00
2023-04-14T06:23:08.363Z,3383.00
2023-04-14T06:24:08.418Z,3397.00
2023-04-14T06:25:08.440Z,3401.00
2023-04-14T06:26:08.482Z,3415.00
2023-04-14T06:27:08.489Z,3432.00
2023-04-14T06:28:08.531Z,3453.00
2023-04-14T06:29:08.650Z,3461.00
2023-04-14T06:30:08.623Z,3455.00
2023-04-14T06:31:08.640Z,3443.00
2023-04-14T06:32:08.752Z,3304.00
2023-04-14T06:33:08.829Z,3278.00
2023-04-14T06:34:08.734Z,3282.00
2023-04-14T06:35:14.250Z,3236.00
2023-04-14T06:36:09.778Z,3238.00
2023-04-14T06:37:08.749Z,3254.00
2023-04-14T06:38:08.745Z,3303.00
2023-04-14T06:39:08.746Z,3409.00
2023-04-14T06:40:08.738Z,3583.00
2023-04-14T06:41:08.751Z,3662.00
2023-04-14T06:42:08.705Z,3702.00
2023-04-14T06:43:08.707Z,3578.00
2023-04-14T06:44:08.707Z,3471.00
2023-04-14T06:45:08.683Z,3421.00
2023-04-14T06:46:08.769Z,3440.00
2023-04-14T06:47:08.681Z,3532.00
2023-04-14T06:48:08.730Z,3557.00
2023-04-14T06:49:08.732Z,3568.00
2023-04-14T06:50:08.748Z,3606.00
2023-04-14T06:51:08.771Z,3609.00
2023-04-14T06:52:08.821Z,3593.00
2023-04-14T06:53:08.802Z,3594.00
2023-04-14T06:54:08.817Z,3622.00
2023-04-14T06:55:08.817Z,3632.00
2023-04-14T06:56:08.852Z,3640.00
2023-04-14T06:57:08.854Z,3617.00
2023-04-14T06:58:08.952Z,3622.00
2023-04-14T06:59:08.959Z,3605.00
2023-04-14T07:00:09.023Z,3539.00
2023-04-14T07:01:09.073Z,3443.00
2023-04-14T07:02:09.143Z,3379.00
2023-04-14T07:03:09.319Z,3308.00
2023-04-14T07:04:09.372Z,3227.00
2023-04-14T07:05:09.301Z,3164.00
2023-04-14T07:06:09.267Z,3154.00
2023-04-14T07:07:09.302Z,3238.00
2023-04-14T07:08:09.385Z,3289.00
2023-04-14T07:09:09.404Z,3311.00
2023-04-14T07:10:09.477Z,3311.00
2023-04-14T07:11:09.479Z,3294.00
2023-04-14T07:12:09.488Z,3272.00
2023-04-14T07:13:09.481Z,3264.00
2023-04-14T07:14:09.753Z,3275.00
2023-04-14T07:15:09.504Z,3230.00
2023-04-14T07:16:09.654Z,3195.00
2023-04-14T07:17:09.561Z,3229.00
2023-04-14T07:18:09.636Z,3224.00
2023-04-14T07:19:09.551Z,3155.00
2023-04-14T07:20:09.597Z,3127.00
2023-04-14T07:21:09.633Z,3089.00
2023-04-14T07:22:09.677Z,2959.00
2023-04-14T07:23:09.715Z,2913.00
2023-04-14T07:24:09.772Z,3004.00
2023-04-14T07:25:09.789Z,2985.00
2023-04-14T07:26:09.842Z,2699.00
2023-04-14T07:27:09.864Z,2605.00
2023-04-14T07:28:09.883Z,2485.00
2023-04-14T07:29:10.257Z,2314.00
2023-04-14T07:30:09.969Z,2295.00
2023-04-14T07:31:10.098Z,2290.00
2023-04-14T07:32:10.045Z,2251.00
2023-04-14T07:33:10.081Z,2350.00
2023-04-14T07:34:10.155Z,2517.00
2023-04-14T07:35:10.123Z,2606.00
2023-04-14T07:36:10.167Z,2625.00
2023-04-14T07:37:10.178Z,2583.00
2023-04-14T07:38:10.176Z,2645.00
2023-04-14T07:39:10.177Z,2513.00
2023-04-14T07:40:10.185Z,2413.00
2023-04-14T07:41:10.249Z,2233.00
2023-04-14T07:42:10.262Z,2074.00
2023-04-14T07:43:10.256Z,2023.00
2023-04-14T07:44:10.263Z,1939.00
2023-04-14T07:45:10.295Z,1984.00
2023-04-14T07:46:10.370Z,1867.00
2023-04-14T07:47:10.370Z,1748.00
2023-04-14T07:48:10.458Z,1772.00
2023-04-14T07:49:10.441Z,1879.00
2023-04-14T07:50:10.500Z,1717.00
2023-04-14T07:51:10.543Z,1700.00
2023-04-14T07:52:10.610Z,1636.00
2023-04-14T07:53:10.602Z,1652.00
2023-04-14T07:54:10.672Z,1573.00
2023-04-14T07:55:10.758Z,1489.00
2023-04-14T07:56:10.785Z,1361.00
2023-04-14T07:57:10.748Z,1384.00
2023-04-14T07:58:15.300Z,1350.00
2023-04-14T07:59:10.757Z,1248.00
2023-04-14T08:00:10.745Z,1179.00
2023-04-14T08:01:10.761Z,1180.00
2023-04-14T08:02:10.817Z,1212.00
2023-04-14T08:03:10.863Z,1262.00
2023-04-14T08:04:11.019Z,1369.00
2023-04-14T08:05:10.782Z,1201.00
2023-04-14T08:06:10.709Z,1147.00
2023-04-14T08:07:10.762Z,1185.00
2023-04-14T08:08:10.718Z,1188.00
2023-04-14T08:09:10.675Z,1154.00
2023-04-14T08:10:10.708Z,1126.00
2023-04-14T08:11:10.715Z,1155.00
2023-04-14T08:12:10.661Z,1197.00
2023-04-14T08:13:10.670Z,1245.00
2023-04-14T08:14:10.662Z,1196.00
2023-04-14T08:15:10.682Z,1203.00
2023-04-14T08:16:10.714Z,1233.00
2023-04-14T08:17:10.689Z,1177.00
2023-04-14T08:18:10.768Z,1134.00
2023-04-14T08:19:10.790Z,1217.00
2023-04-14T08:20:10.835Z,1146.00
2023-04-14T08:21:11.282Z,1343.00
2023-04-14T08:22:10.927Z,1580.00
2023-04-14T08:23:10.930Z,1875.00
2023-04-14T08:24:10.931Z,2038.00
2023-04-14T08:25:10.959Z,2103.00
2023-04-14T08:26:11.008Z,2046.00
2023-04-14T08:27:11.049Z,2056.00
2023-04-14T08:28:11.069Z,2065.00
2023-04-14T08:29:11.106Z,2110.00
2023-04-14T08:30:11.707Z,2115.00
2023-04-14T08:31:11.242Z,2210.00
2023-04-14T08:32:11.256Z,2253.00
2023-04-14T08:33:11.299Z,2200.00
2023-04-14T08:34:11.283Z,2195.00
2023-04-14T08:35:36.972Z,2080.00
2023-04-14T08:36:12.317Z,2088.00
2023-04-14T08:37:11.284Z,2127.00
2023-04-14T08:38:11.421Z,2192.00
2023-04-14T08:39:11.247Z,2302.00
2023-04-14T08:40:11.264Z,2668.00
2023-04-14T08:41:11.253Z,2666.00
2023-04-14T08:42:11.246Z,2717.00
2023-04-14T08:43:14.521Z,2842.00
2023-04-14T08:44:11.315Z,2843.00
2023-04-14T08:45:11.248Z,2860.00
2023-04-14T08:46:11.298Z,2889.00
2023-04-14T08:47:11.228Z,2960.00
2023-04-14T08:48:11.189Z,3178.00
2023-04-14T08:49:11.256Z,3265.00
2023-04-14T08:50:11.292Z,3346.00
2023-04-14T08:51:11.182Z,3360.00
2023-04-14T08:52:11.202Z,3322.00
2023-04-14T08:53:11.169Z,3313.00
2023-04-14T08:54:11.174Z,3311.00
2023-04-14T08:55:11.332Z,3298.00
2023-04-14T08:56:11.155Z,3201.00
2023-04-14T08:57:11.137Z,3018.00
2023-04-14T08:58:11.198Z,2873.00
2023-04-14T08:59:11.114Z,2848.00
2023-04-14T09:00:11.111Z,2738.00
2023-04-14T09:01:11.210Z,2802.00
2023-04-14T09:02:11.300Z,2787.00
2023-04-14T09:03:11.199Z,2838.00
2023-04-14T09:04:11.202Z,2959.00
2023-04-14T09:05:11.098Z,3046.00
2023-04-14T09:06:11.084Z,3080.00
2023-04-14T09:07:11.093Z,3096.00
2023-04-14T09:08:11.084Z,3094.00
2023-04-14T09:09:11.063Z,2773.00
2023-04-14T09:10:11.045Z,2437.00
2023-04-14T09:11:11.064Z,2481.00
2023-04-14T09:12:11.292Z,2523.00
2023-04-14T09:13:11.044Z,2722.00
2023-04-14T09:14:11.035Z,2763.00
2023-04-14T09:15:11.046Z,2722.00
2023-04-14T09:16:11.087Z,2771.00
2023-04-14T09:17:11.357Z,2801.00
2023-04-14T09:18:11.172Z,2834.00
2023-04-14T09:19:11.151Z,2880.00
2023-04-14T09:20:36.315Z,2876.00
2023-04-14T09:21:30.186Z,2876.00
2023-04-14T09:22:12.181Z,2878.00
2023-04-14T09:23:11.182Z,2886.00
2023-04-14T09:24:12.206Z,2903.00
2023-04-14T09:25:11.149Z,2902.00
2023-04-14T09:26:11.140Z,2844.00
2023-04-14T09:27:11.152Z,2847.00
2023-04-14T09:28:11.106Z,2778.00
2023-04-14T09:29:11.111Z,2695.00
2023-04-14T09:30:11.352Z,2684.00
2023-04-14T09:31:11.173Z,2750.00
2023-04-14T09:32:11.298Z,2439.00
2023-04-14T09:33:11.159Z,2082.00
2023-04-14T09:34:11.133Z,1816.00
2023-04-14T09:35:11.056Z,1690.00
2023-04-14T09:36:11.067Z,1650.00
2023-04-14T09:37:11.045Z,1525.00
2023-04-14T09:38:11.052Z,1512.00
2023-04-14T09:39:11.026Z,1385.00
2023-04-14T09:40:11.049Z,1069.00
2023-04-14T09:41:11.026Z,905.00
2023-04-14T09:42:11.008Z,878.00
2023-04-14T09:43:11.020Z,720.00
2023-04-14T09:44:11.006Z,876.00
2023-04-14T09:45:11.014Z,875.00
2023-04-14T09:46:11.051Z,712.00
2023-04-14T09:47:10.975Z,698.00
2023-04-14T09:48:11.026Z,661.00
2023-04-14T09:49:10.980Z,754.00
2023-04-14T09:50:10.959Z,807.00
2023-04-14T09:51:10.975Z,1008.00
2023-04-14T09:52:11.310Z,1253.00
2023-04-14T09:53:10.939Z,1458.00
2023-04-14T09:54:10.922Z,1711.00
2023-04-14T09:55:10.927Z,1873.00
2023-04-14T09:56:10.963Z,2008.00
2023-04-14T09:57:10.909Z,2124.00
2023-04-14T09:58:10.923Z,2268.00
2023-04-14T09:59:10.953Z,2407.00
2023-04-14T10:00:10.965Z,2420.00
2023-04-14T10:01:11.357Z,2603.00
2023-04-14T10:02:11.137Z,2569.00
2023-04-14T10:03:11.177Z,2597.00
2023-04-14T10:04:11.094Z,2704.00
2023-04-14T10:05:11.192Z,2800.00
2023-04-14T10:06:11.195Z,2839.00
2023-04-14T10:07:11.245Z,2835.00
2023-04-14T10:08:11.273Z,2894.00
2023-04-14T10:09:11.321Z,2965.00
2023-04-14T10:10:11.383Z,3044.00
2023-04-14T10:11:11.411Z,3076.00
2023-04-14T10:12:11.473Z,3088.00
2023-04-14T10:13:11.470Z,3127.00
2023-04-14T10:14:11.516Z,3122.00
2023-04-14T10:15:11.531Z,3201.00
2023-04-14T10:16:11.641Z,3219.00
2023-04-14T10:17:11.598Z,3215.00
2023-04-14T10:18:11.716Z,3232.00
2023-04-14T10:19:11.665Z,3213.00
2023-04-14T10:20:11.680Z,3221.00
2023-04-14T10:21:11.816Z,3083.00
2023-04-14T10:22:11.825Z,3034.00
2023-04-14T10:23:11.746Z,3080.00
2023-04-14T10:24:11.778Z,3034.00
2023-04-14T10:25:11.841Z,3049.00
2023-04-14T10:26:11.923Z,2982.00
2023-04-14T10:27:11.952Z,2897.00
2023-04-14T10:28:11.920Z,2927.00
2023-04-14T10:29:11.951Z,3021.00
2023-04-14T10:30:12.065Z,2789.00
2023-04-14T10:31:12.132Z,2763.00
2023-04-14T10:32:12.085Z,2798.00
2023-04-14T10:33:12.141Z,2895.00
2023-04-14T10:34:12.165Z,2967.00
2023-04-14T10:35:12.144Z,3008.00
2023-04-14T10:36:12.199Z,3030.00
2023-04-14T10:37:12.188Z,2996.00
2023-04-14T10:38:12.187Z,2950.00
2023-04-14T10:39:12.287Z,2916.00
2023-04-14T10:40:12.262Z,2912.00
2023-04-14T10:41:12.345Z,2877.00
2023-04-14T10:42:12.333Z,2806.00
2023-04-14T10:43:12.335Z,2806.00
2023-04-14T10:44:12.394Z,2844.00
2023-04-14T10:45:12.402Z,2873.00
2023-04-14T10:46:12.461Z,2878.00
2023-04-14T10:47:12.567Z,2891.00
2023-04-14T10:48:12.461Z,2895.00
2023-04-14T10:49:12.457Z,2872.00
2023-04-14T10:50:12.534Z,2858.00
2023-04-14T10:51:12.511Z,2858.00
2023-04-14T10:52:12.553Z,2842.00
2023-04-14T10:53:12.552Z,2830.00
2023-04-14T10:54:12.524Z,2824.00
2023-04-14T10:55:12.561Z,2794.00
2023-04-14T10:56:12.555Z,2791.00
2023-04-14T10:57:12.647Z,2797.00
2023-04-14T10:58:12.641Z,2787.00
2023-04-14T10:59:12.676Z,2774.00
2023-04-14T11:00:12.715Z,2787.00
2023-04-14T11:01:12.807Z,2763.00
2023-04-14T11:02:12.872Z,2759.00
2023-04-14T11:03:13.327Z,2775.00
2023-04-14T11:04:13.062Z,2790.00
2023-04-14T11:05:12.869Z,2787.00
2023-04-14T11:06:13.392Z,2751.00
2023-04-14T11:07:12.943Z,2721.00
2023-04-14T11:08:12.975Z,2707.00
2023-04-14T11:09:12.971Z,2678.00
2023-04-14T11:10:12.998Z,2672.00
2023-04-14T11:11:13.013Z,2450.00
2023-04-14T11:12:13.369Z,2133.00
2023-04-14T11:13:13.119Z,2170.00
2023-04-14T11:14:13.126Z,1971.00
2023-04-14T11:15:13.152Z,1766.00
2023-04-14T11:16:13.879Z,1725.00
2023-04-14T11:17:13.426Z,1547.00
2023-04-14T11:18:13.317Z,1446.00
2023-04-14T11:19:13.271Z,1551.00
2023-04-14T11:20:13.287Z,1624.00
2023-04-14T11:21:13.417Z,1296.00
2023-04-14T11:22:13.859Z,1234.00
2023-04-14T11:23:13.394Z,1376.00
2023-04-14T11:24:13.415Z,1453.00
2023-04-14T11:25:13.477Z,1646.00
2023-04-14T11:26:13.978Z,1792.00
2023-04-14T11:27:13.540Z,2221.00
2023-04-14T11:28:13.563Z,2478.00
2023-04-14T11:29:13.590Z,2703.00
2023-04-14T11:30:13.617Z,2789.00
2023-04-14T11:31:13.686Z,3244.00
2023-04-14T11:32:13.771Z,3290.00
2023-04-14T11:33:13.835Z,3506.00
2023-04-14T11:34:13.834Z,3459.00
2023-04-14T11:35:13.928Z,3238.00
2023-04-14T11:36:13.969Z,3202.00
2023-04-14T11:37:13.998Z,3158.00
2023-04-14T11:38:14.042Z,3089.00
2023-04-14T11:39:14.096Z,3057.00
2023-04-14T11:40:14.180Z,3032.00
2023-04-14T11:41:14.208Z,3001.00
2023-04-14T11:42:14.296Z,2985.00
2023-04-14T11:43:14.248Z,2956.00
2023-04-14T11:44:14.323Z,2915.00
2023-04-14T11:45:14.340Z,2921.00
2023-04-14T11:46:14.416Z,2904.00
2023-04-14T11:47:14.375Z,2904.00
2023-04-14T11:48:14.495Z,2888.00
2023-04-14T11:49:14.503Z,2886.00
2023-04-14T11:50:14.547Z,2870.00
2023-04-14T11:51:14.581Z,2860.00
2023-04-14T11:52:14.624Z,2857.00
2023-04-14T11:53:14.661Z,2854.00
2023-04-14T11:54:14.675Z,2828.00
2023-04-14T11:55:14.704Z,2829.00
2023-04-14T11:56:14.768Z,2837.00
2023-04-14T11:57:14.816Z,2833.00
2023-04-14T11:58:14.825Z,2841.00
2023-04-14T11:59:14.849Z,2831.00
2023-04-14T12:00:14.927Z,2813.00
2023-04-14T12:01:15.084Z,2830.00
2023-04-14T12:02:15.041Z,2807.00
2023-04-14T12:03:15.266Z,2796.00
2023-04-14T12:04:15.113Z,2800.00
2023-04-14T12:05:15.114Z,2778.00
2023-04-14T12:06:15.071Z,2785.00
2023-04-14T12:07:15.110Z,2781.00
2023-04-14T12:08:15.149Z,2779.00
2023-04-14T12:09:15.187Z,2770.00
2023-04-14T12:10:15.296Z,2799.00
2023-04-14T12:11:15.418Z,2866.00
2023-04-14T12:12:17.199Z,2848.00
2023-04-14T12:13:15.351Z,2800.00
2023-04-14T12:14:15.394Z,2739.00
2023-04-14T12:15:15.440Z,2696.00
2023-04-14T12:16:15.488Z,2689.00
2023-04-14T12:17:15.545Z,2693.00